Accueil
METAR-TAF:

METAR-TAF

Aéroports :

Aéroport international de Yap

Yap, Micronésie

latitude: 09-29N, longitude: 138-05E, altitude: 28 m

Observation

Le bulletin a été fait il y a 48 minutes, à 06:50 UTC
Vent 9 kt de est
Température 30°C
Humidité 79%
Pression 1009 hPa
Visibilité: 19.3 km
Quelques nuages à une hauteur de 1600 ft
Nuages fragmentés à une hauteur de 30000 ft

METAR: PTYA 030650Z 08009KT 12SM FEW016 BKN300 30/26 A2979 RMK SLP088 T03030256

Heure: 17:38 (07:38 UTC)

Prévision

Le bulletin a été fait il y a 2 heures et 9 minutes, à 05:29 UTC
Prévision valable du 03 à 06 UTC au 04 à 06 UTC
Vent 9 kt de est
Visibilité: 10 km
Nuages épars à une hauteur de 1800 ft
Nuages épars à une hauteur de 5000 ft
averses à proximité

TAF: PTYA 030529Z 0306/0406 08009KT P6SM VCSH SCT018 SCT050

Observations et prévisions météorologiques de plus de 4000 aéroports (messages METAR et TAF).

Les stations disponibles sont représentées par des disques jaunes et rouges sur la carte.

Passer la souris dessus pour voir le nom de la station.

Cliquer dessus pour voir les observations et prévisions météorologiques.

Pour changer de carte: cliquez sur les boutons verts avec une croix noire pour zoomer, sur le bouton vert avec un tiret pour effectuer un zoom arrière, ou sur les flèches vertes pour les cartes adjacentes.


METAR-TAF: